Latest Weather Observations for Bombala AWS

IDN60801

Issued at 2:05 am EST Friday 3 October 2014 (issued every 30 minutes, with the page automatically refreshed every 10 minutes)

About weather observations | Map of weather stations | Latest weather observations for NSW | Other Formats
Station Details ID: 070328 Name: BOMBALA AWS Lat: -37.00 Lon: 149.23 Height: 760.5 m
Data from the previous 72 hours. | See also: Recent months at Bombala AWS
Date/Time
EST
Temp
°C
App
Temp
°C
Dew
Point
Rel
Hum
%
Delta-T
°C
Wind Press
QNH
hPa
Press
MSL
hPa
Rain
since 9 am
mm
Dir
 
Spd
km/h
Gust
km/h
Spd
kts
Gust
kts
03/02:00am 6.6 2.2 4.8 88 0.8 W 17 28 9 15 1020.3 1019.6 0.0
03/01:30am 6.3 1.5 4.5 88 0.8 W 19 26 10 14 1020.6 1019.9 0.0
03/01:00am 6.3 3.7 4.3 87 0.9 NW 7 15 4 8 1021.1 1020.4 0.0
03/12:30am 6.8 3.9 4.6 86 1.0 W 9 13 5 7 1021.3 1020.6 0.0
03/12:00am 7.5 1.1 5.1 85 1.1 WSW 28 39 15 21 1020.8 1020.1 0.0
 
Date/Time
EST
Temp
°C
App
Temp
°C
Dew
Point
Rel
Hum
%
Delta-T
°C
Wind Press
QNH
hPa
Press
MSL
hPa
Rain
since 9 am
mm
Dir
 
Spd
km/h
Gust
km/h
Spd
kts
Gust
kts
02/11:30pm 7.0 2.2 4.8 86 1.0 W 19 30 10 16 1020.8 1020.1 0.0
02/11:00pm 7.3 2.6 5.1 86 1.0 W 19 28 10 15 1021.1 1020.4 0.0
02/10:30pm 7.6 1.6 5.2 85 1.1 WSW 26 43 14 23 1020.8 1020.1 0.0
02/10:00pm 7.8 0.7 5.3 84 1.2 WSW 32 46 17 25 1020.7 1020.0 0.0
02/09:30pm 7.8 0.4 5.1 83 1.3 WSW 33 44 18 24 1021.0 1020.3 0.0
02/09:00pm 8.0 0.7 5.5 84 1.2 W 33 43 18 23 1021.0 1020.3 0.0
02/08:30pm 8.0 3.3 5.3 83 1.3 WSW 19 26 10 14 1021.6 1020.9 0.0
02/08:00pm 8.6 3.9 6.1 84 1.2 WSW 20 32 11 17 1021.4 1020.7 0.0
02/07:30pm 9.0 3.2 6.3 83 1.3 WSW 26 33 14 18 1021.1 1020.4 0.0
02/07:00pm 10.0 5.3 6.2 77 1.8 WSW 20 28 11 15 1020.5 1019.8 0.0
02/06:30pm 9.9 6.4 5.5 74 2.1 SW 13 19 7 10 1020.2 1019.5 0.0
02/06:00pm 10.7 6.7 4.8 67 2.8 SW 15 20 8 11 1020.1 1019.4 0.0
02/05:30pm 12.6 7.6 4.6 58 3.8 SW 20 28 11 15 1019.7 1018.9 0.0
02/05:00pm 13.9 8.4 3.9 51 4.7 WSW 22 33 12 18 1019.3 1018.6 0.0
02/04:30pm 14.3 6.6 2.2 44 5.6 WSW 32 46 17 25 1019.1 1018.4 0.0
02/04:00pm 14.8 7.3 1.3 40 6.1 WSW 30 39 16 21 1018.8 1018.1 0.0
02/03:30pm 15.2 8.4 3.0 44 5.7 WSW 28 35 15 19 1018.9 1018.2 0.0
02/03:00pm 15.3 8.9 3.1 44 5.8 WSW 26 37 14 20 1018.9 1018.2 0.0
02/02:30pm 15.4 8.8 2.2 41 6.1 WSW 26 33 14 18 1019.1 1018.4 0.0
02/02:00pm 15.6 8.7 2.7 42 6.0 WSW 28 46 15 25 1019.0 1018.3 0.0
02/01:30pm 15.3 8.4 2.5 42 6.0 SW 28 37 15 20 1019.2 1018.5 0.0
02/01:00pm 14.9 7.6 2.4 43 5.8 SW 30 39 16 21 1019.1 1018.4 0.0
02/12:30pm 15.1 8.8 3.6 46 5.5 WSW 26 35 14 19 1019.3 1018.6 0.0
02/12:00pm 14.6 9.7 4.3 50 5.0 SW 19 24 10 13 1019.6 1018.8 0.0
02/11:00am 13.1 7.1 3.2 51 4.6 SW 24 33 13 18 1020.2 1019.5 0.0
02/10:30am 12.4 7.7 3.4 54 4.2 W 17 22 9 12 1020.2 1019.5 0.0
02/10:00am 12.0 7.0 3.8 57 3.8 SW 19 30 10 16 1020.3 1019.6 0.0
02/09:30am 11.0 5.4 3.5 60 3.5 WSW 22 28 12 15 1020.4 1019.7 0.0
02/09:00am 10.2 5.6 3.5 63 3.1 W 17 22 9 12 1020.4 1019.7 0.0
02/08:30am 9.4 5.6 3.8 68 2.6 WSW 13 20 7 11 1020.6 1019.9 0.0
02/08:00am 7.8 2.6 3.5 74 1.9 WNW 20 30 11 16 1020.3 1019.6 0.0
02/07:30am 5.3 1.3 3.0 85 1.0 NNW 13 17 7 9 1020.4 1019.7 0.0
02/07:00am 4.3 -0.9 2.5 88 0.8 NNW 19 22 10 12 1020.5 1019.8 0.0
02/06:30am 3.2 -1.4 1.7 90 0.6 NW 15 20 8 11 1020.7 1020.0 0.0
02/06:00am 2.6 -2.7 1.6 93 0.4 NW 19 20 10 11 1020.4 1019.7 0.0
02/05:30am 3.2 -2.1 1.6 89 0.7 NW 19 22 10 12 1020.3 1019.6 0.0
02/05:00am 3.0 -2.3 1.8 92 0.5 WNW 19 22 10 12 1020.2 1019.5 0.0
02/04:30am 3.3 -2.1 1.5 88 0.7 WNW 19 22 10 12 1019.9 1019.2 0.0
02/04:00am 2.8 -1.9 1.2 89 0.6 NW 15 20 8 11 1020.4 1019.7 0.0
02/03:30am 3.1 -0.8 1.2 87 0.8 NW 11 15 6 8 1020.6 1019.9 0.0
02/03:00am 4.3 -0.7 1.5 82 1.2 WNW 17 22 9 12 1020.8 1020.1 0.0
02/02:30am 4.1 -0.9 1.6 84 1.0 WNW 17 26 9 14 1021.0 1020.3 0.0
02/02:00am 3.4 -0.1 1.0 84 1.0 NW 9 15 5 8 1021.3 1020.6 0.0
02/01:30am 4.5 1.4 1.5 81 1.2 WNW 7 13 4 7 1021.5 1020.8 0.0
02/01:00am 5.0 0.5 2.0 81 1.3 W 15 22 8 12 1021.7 1021.0 0.0
02/12:30am 4.0 -0.2 1.7 85 1.0 WNW 13 19 7 10 1021.8 1021.1 0.0
02/12:00am 4.0 -0.5 1.9 86 0.9 W 15 20 8 11 1021.9 1021.2 0.0
 
Date/Time
EST
Temp
°C
App
Temp
°C
Dew
Point
Rel
Hum
%
Delta-T
°C
Wind Press
QNH
hPa
Press
MSL
hPa
Rain
since 9 am
mm
Dir
 
Spd
km/h
Gust
km/h
Spd
kts
Gust
kts
01/11:30pm 4.9 -0.9 2.3 83 1.1 W 22 32 12 17 1022.0 1021.4 0.0
01/11:00pm 4.4 -1.0 2.4 87 0.8 W 20 30 11 16 1022.1 1021.5 0.0
01/10:30pm 4.7 -1.5 2.4 85 1.0 W 24 32 13 17 1022.5 1021.8 0.0
01/10:00pm 4.8 -1.0 2.3 84 1.1 W 22 30 12 16 1022.5 1021.8 0.0
01/09:30pm 5.2 -1.4 2.2 81 1.3 WSW 26 35 14 19 1022.2 1021.6 0.0
01/09:00pm 4.7 0.2 2.1 83 1.1 W 15 22 8 12 1022.2 1021.6 0.0
01/08:30pm 3.8 -0.1 1.0 82 1.1 SW 11 15 6 8 1022.2 1021.6 0.0
01/08:00pm 5.0 0.0 1.3 77 1.5 WSW 17 22 9 12 1021.9 1021.2 0.0
01/07:30pm 5.1 0.9 1.8 79 1.4 SW 13 26 7 14 1021.6 1020.9 0.0
01/07:00pm 5.0 0.4 1.7 79 1.4 SW 15 20 8 11 1021.2 1020.5 0.0
01/06:30pm 5.0 0.7 0.9 75 1.7 SW 13 19 7 10 1020.8 1020.1 0.0
01/06:00pm 6.3 0.3 0.8 68 2.3 SW 22 30 12 16 1020.6 1019.9 0.0
01/05:30pm 7.7 1.2 0.2 59 3.1 SW 24 37 13 20 1020.4 1019.7 0.0
01/05:00pm 8.3 0.1 -1.0 52 3.8 WSW 32 44 17 24 1020.1 1019.4 0.0
01/04:30pm 8.7 2.7 0.9 58 3.3 SW 22 30 12 16 1019.8 1019.1 0.0
01/04:00pm 8.6 1.8 0.8 58 3.3 WSW 26 41 14 22 1019.8 1019.1 0.0
01/03:30pm 8.5 0.6 1.0 59 3.2 WSW 32 50 17 27 1019.9 1019.2 0.0
01/03:29pm 8.3 0.4 1.0 60 3.1 WSW 32 50 17 27 1019.8 1019.1 0.0
01/03:00pm 7.0 0.2 3.1 76 1.7 SW 28 35 15 19 1020.0 1019.3 0.0
01/02:30pm 8.4 0.5 1.3 61 3.0 WSW 32 46 17 25 1019.3 1018.6 0.0
01/02:00pm 9.8 1.3 0.7 53 3.9 WSW 35 46 19 25 1019.1 1018.4 0.0
01/01:30pm 9.5 0.0 -0.4 50 4.1 WSW 39 54 21 29 1018.8 1018.1 0.0
01/01:09pm 9.7 0.1 0.9 54 3.8 WSW 41 61 22 33 1018.9 1018.2 0.0
01/01:00pm 9.5 -0.1 1.4 57 3.5 WSW 41 52 22 28 1019.0 1018.3 0.0
01/12:48pm 8.2 -0.3 0.9 60 3.1 WSW 35 54 19 29 1019.2 1018.5 0.0
01/12:30pm 7.9 0.0 1.3 63 2.8 SW 32 43 17 23 1019.3 1018.6 0.0
01/12:06pm 8.9 1.0 2.3 63 2.9 SW 33 54 18 29 1019.1 1018.4 0.0
01/12:00pm 8.2 0.3 2.0 65 2.7 WSW 33 50 18 27 1019.0 1018.3 0.0
01/11:30am 7.6 -0.1 3.6 76 1.8 WSW 33 52 18 28 1018.8 1018.1 0.0
01/11:11am 5.1 -4.6 2.6 84 1.1 WSW 43 63 23 34 1019.0 1018.3 0.0
01/11:00am 6.8 -3.4 1.1 67 2.4 WSW 44 59 24 32 1018.7 1018.0 0.0
01/10:30am 7.4 -2.5 1.7 67 2.4 WSW 43 54 23 29 1018.5 1017.7 0.0
01/10:00am 6.5 -2.1 2.6 76 1.7 WSW 37 56 20 30 1018.4 1017.6 0.0
01/09:55am 6.3 -1.9 2.8 78 1.5 WSW 35 56 19 30 1018.4 1018.4 0.0
01/09:30am 6.2 -2.6 1.3 71 2.1 WSW 37 48 20 26 1017.9 1017.9 0.0
01/09:00am 5.2 -4.8 1.0 74 1.7 WSW 43 61 23 33 1017.5 1017.5 5.0
01/08:46am 5.3 -3.6 0.5 71 2.0 WSW 37 57 20 31 1017.3 1017.3 5.0
01/08:30am 5.3 -4.2 2.0 79 1.4 WSW 41 52 22 28 1017.1 1017.0 5.0
01/08:07am 4.4 -2.7 1.4 81 1.2 WSW 28 48 15 26 1016.9 1016.8 5.0
01/08:00am 5.0 -2.0 1.8 80 1.3 WSW 28 39 15 21 1016.8 1016.7 5.0
01/07:38am 3.9 -3.3 0.9 81 1.2 WSW 28 48 15 26 1016.5 1016.5 5.0
01/07:30am 3.9 -4.3 0.6 79 1.3 WSW 33 48 18 26 1016.4 1016.4 5.0
01/07:00am 2.7 -6.1 1.1 89 0.6 WSW 37 48 20 26 1016.1 1016.1 5.0
01/06:30am 3.1 -5.2 -0.4 78 1.4 WSW 33 59 18 32 1015.2 1015.2 5.0
01/06:05am 2.7 -6.8 -0.4 80 1.2 W 39 59 21 32 1014.4 1014.3 5.0
01/06:00am 2.5 -7.3 -0.4 81 1.1 W 41 59 22 32 1014.3 1014.2 5.0
01/05:57am 2.6 -6.9 -0.5 80 1.2 WSW 39 59 21 32 1014.2 1014.1 5.0
01/05:30am 2.3 -7.9 -0.4 82 1.0 W 43 59 23 32 1013.5 1013.4 5.0
01/05:00am 2.2 -6.8 0.4 88 0.7 WSW 37 56 20 30 1012.9 1012.8 5.0
01/04:30am 3.1 -5.0 1.2 87 0.8 WSW 33 57 18 31 1012.4 1012.3 5.0
01/04:29am 3.3 -4.5 1.5 88 0.7 WSW 32 56 17 30 1012.7 1012.6 5.0
01/04:28am 3.3 -4.2 1.5 88 0.7 WSW 30 44 16 24 1012.8 1012.7 5.0
01/04:00am 3.4 -2.0 1.1 85 0.9 W 19 24 10 13 1011.9 1011.8 5.0
01/03:30am 2.4 -2.7 0.9 90 0.6 WNW 17 19 9 10 1011.4 1011.2 5.0
01/03:00am 3.1 -2.9 1.3 88 0.7 W 22 26 12 14 1011.2 1011.0 5.0
01/02:30am 3.1 -2.3 1.5 89 0.7 W 19 26 10 14 1010.8 1010.7 5.0
01/02:00am 2.3 -2.3 1.3 93 0.4 W 15 19 8 10 1010.7 1010.6 5.0
01/01:30am 3.0 -2.5 2.1 94 0.4 W 20 22 11 12 1010.5 1010.4 5.0
01/01:00am 3.5 -1.7 2.2 91 0.5 WNW 19 24 10 13 1010.3 1010.1 5.0
01/12:30am 3.3 -0.5 2.0 91 0.5 WNW 11 15 6 8 1010.6 1010.5 5.0
01/12:00am 3.9 -1.2 3.0 94 0.4 WSW 19 22 10 12 1010.6 1010.5 5.0
 
Date/Time
EST
Temp
°C
App
Temp
°C
Dew
Point
Rel
Hum
%
Delta-T
°C
Wind Press
QNH
hPa
Press
MSL
hPa
Rain
since 9 am
mm
Dir
 
Spd
km/h
Gust
km/h
Spd
kts
Gust
kts
30/11:30pm 3.7 -1.9 3.4 98 0.1 WSW 22 28 12 15 1010.3 1010.1 5.0
30/11:00pm 2.5 -4.0 2.4 99 0.0 SW 26 33 14 18 1010.4 1010.3 4.6
30/10:30pm 3.2 -4.9 3.1 99 0.0 SW 35 44 19 24 1010.3 1010.1 1.8
30/10:12pm 3.7 -5.5 3.3 97 0.2 SSW 41 59 22 32 1009.6 1009.5 1.2
30/10:00pm 4.3 -6.7 3.0 91 0.6 SW 50 63 27 34 1009.2 1009.0 0.8
30/09:42pm 6.4 -0.8 4.9 90 0.7 SSW 32 54 17 29 1009.4 1009.3 0.2
30/09:30pm 6.5 -1.2 5.5 93 0.5 S 35 46 19 25 1008.5 1008.3 0.2
30/09:16pm 8.2 1.4 6.8 91 0.7 S 32 43 17 23 1008.4 1008.2 0.2
30/09:00pm 12.6 9.2 7.5 71 2.6 NW 15 22 8 12 1008.1 1008.0 0.2
30/08:30pm 12.4 7.3 7.5 72 2.5 WNW 24 33 13 18 1007.5 1007.3 0.2
30/08:00pm 11.9 3.0 7.8 76 2.1 WNW 44 65 24 35 1007.9 1007.7 0.0
30/07:45pm 14.0 2.8 5.9 58 4.0 WNW 54 72 29 39 1007.0 1006.7 0.0
30/07:39pm 15.3 -0.8 4.4 48 5.3 W 78 96 42 52 1006.1 1005.9 0.0
30/07:38pm 15.5 -0.7 3.9 46 5.6 W 78 96 42 52 1005.9 1005.7 0.0
30/07:30pm 16.6 4.8 3.0 40 6.5 WNW 54 82 29 44 1005.7 1005.4 0.0
30/07:21pm 16.5 5.1 2.9 40 6.5 WNW 52 70 28 38 1005.3 1005.1 0.0
30/07:12pm 16.5 4.2 2.9 40 6.5 WNW 57 70 31 38 1005.0 1004.8 0.0
30/07:00pm 16.3 7.7 2.7 40 6.5 NW 37 57 20 31 1005.0 1004.8 0.0
30/06:30pm 15.9 7.6 2.3 40 6.3 WNW 35 57 19 31 1005.8 1005.5 0.0
30/06:25pm 16.4 7.7 2.1 38 6.7 WNW 37 57 20 31 1005.7 1005.4 0.0
30/06:00pm 16.4 7.7 2.1 38 6.7 WNW 37 52 20 28 1005.9 1005.7 0.0
30/05:30pm 17.7 6.1 1.7 34 7.5 WNW 52 74 28 40 1006.0 1005.8 0.0
30/05:13pm 17.6 6.0 2.0 35 7.3 WNW 52 70 28 38 1005.8 1005.5 0.0
30/05:07pm 17.9 5.3 1.4 33 7.7 WNW 57 70 31 38 1005.3 1005.1 0.0
30/05:05pm 17.9 10.1 2.6 36 7.3 WNW 33 57 18 31 1005.8 1005.5 0.0
30/05:00pm 18.1 10.3 2.8 36 7.4 WNW 33 46 18 25 1005.8 1005.5 0.0
30/04:30pm 18.6 8.6 1.2 31 8.1 NW 43 63 23 34 1005.1 1004.9 0.0
30/04:12pm 19.0 10.8 2.8 34 7.8 WNW 35 54 19 29 1005.1 1004.9 0.0
30/04:00pm 18.8 10.4 3.8 37 7.4 WNW 37 52 20 28 1005.2 1005.0 0.0
30/03:30pm 19.6 8.7 1.6 30 8.5 WNW 48 65 26 35 1005.0 1004.8 0.0
30/03:00pm 19.9 10.4 4.0 35 7.9 NW 43 67 23 36 1005.3 1005.1 0.0
30/02:31pm 19.8 8.8 3.1 33 8.2 NW 50 70 27 38 1005.2 1005.0 0.0
30/02:30pm 19.8 8.4 3.1 33 8.2 NW 52 70 28 38 1005.2 1005.0 0.0
30/02:18pm 19.6 6.4 2.5 32 8.2 NW 61 69 33 37 1005.2 1005.0 0.0
30/02:02pm 19.9 11.9 4.0 35 7.9 NW 35 54 19 29 1006.4 1006.2 0.0
30/02:00pm 20.0 12.1 4.1 35 8.0 WNW 35 52 19 28 1006.5 1006.3 0.0
30/01:43pm 19.9 10.3 3.2 33 8.2 NW 43 61 23 33 1007.1 1006.9 0.0
30/01:30pm 19.9 10.1 3.6 34 8.0 NW 44 59 24 32 1007.4 1007.2 0.0
30/01:00pm 19.7 9.2 3.8 35 7.9 NW 48 69 26 37 1007.8 1007.6 0.0
30/12:33pm 19.8 9.9 2.6 32 8.3 WNW 44 63 24 34 1008.2 1008.1 0.0
30/12:30pm 19.9 9.4 3.6 34 8.0 WNW 48 65 26 35 1008.2 1008.1 0.0
30/12:08pm 19.8 9.9 1.7 30 8.6 NW 43 63 23 34 1008.2 1008.1 0.0
30/12:00pm 19.6 9.2 2.0 31 8.4 NW 46 63 25 34 1008.5 1008.3 0.0
30/11:31am 19.4 9.2 0.9 29 8.6 NW 44 72 24 39 1008.6 1008.4 0.0
30/11:30am 19.5 9.5 1.9 31 8.4 NW 44 61 24 33 1008.7 1008.5 0.0
30/11:01am 19.1 11.2 2.5 33 8.0 NW 33 54 18 29 1009.3 1009.2 0.0
30/11:00am 19.3 11.9 3.9 36 7.6 NW 32 46 17 25 1009.5 1009.4 0.0
30/10:30am 18.4 11.3 5.3 42 6.6 NNW 32 39 17 21 1010.0 1009.8 0.0
30/10:00am 17.9 13.1 7.3 50 5.6 WNW 22 32 12 17 1010.8 1010.7 0.0
30/09:30am 16.4 11.9 7.1 54 4.8 NNW 20 26 11 14 1011.4 1011.2 0.0
30/09:00am 15.4 11.3 6.4 55 4.6 NNW 17 22 9 12 1011.7 1011.6 0.0
30/08:30am 13.4 11.6 7.2 66 3.1 N 6 7 3 4 1011.8 1011.7 0.0
30/08:00am 12.0 9.4 4.2 59 3.7 NW 7 9 4 5 1011.9 1011.8 0.0
30/07:30am 10.0 7.6 5.4 73 2.2 NNW 7 11 4 6 1011.9 1011.8 0.0
30/07:00am 8.2 6.0 3.5 72 2.1 WNW 4 6 2 3 1012.0 1011.9 0.0
30/06:30am 7.5 4.3 0.9 63 2.8 WNW 7 7 4 4 1012.2 1012.1 0.0
30/06:00am 5.4 1.9 1.0 73 1.8 NNW 9 11 5 6 1011.9 1011.8 0.0
30/05:30am 6.1 2.9 0.6 68 2.3 NNW 7 9 4 5 1011.7 1011.6 0.0
30/05:00am 5.9 2.0 0.9 70 2.1 NNW 11 13 6 7 1011.7 1011.6 0.0
30/04:30am 5.7 2.8 1.4 74 1.8 W 6 13 3 7 1011.9 1011.8 0.0
30/04:00am 5.0 2.3 0.0 70 2.0 NNW 4 7 2 4 1012.1 1012.0 0.0
30/03:30am 6.4 3.8 0.7 67 2.4 NNW 4 7 2 4 1012.4 1012.3 0.0
30/03:00am 6.0 2.4 0.6 68 2.2 NNW 9 11 5 6 1012.7 1012.6 0.0
30/02:30am 7.4 2.9 -0.1 59 3.1 WNW 13 19 7 10 1012.8 1012.7 0.0

Other Formats:

Comma delimited format used in spreadsheet applications
http://www.bom.gov.au/fwo/IDN60801/IDN60801.94929.axf

JavaScript Object Notation format (JSON) in row-major order
http://www.bom.gov.au/fwo/IDN60801/IDN60801.94929.json